Time;durP1;ratioP1;P1;durP2;ratioP2;P2;SDS_P1;SDS_P2;PMS_P1;PMS_P2;Temp;Humidity;BMP_temperature;BMP_pressure;BME280_temperature;BME280_humidity;BME280_pressure;Samples;Min_cycle;Max_cycle;Signal;HPM_P1;HPM_P2
2022/09/06 00:01:40;;;;;;;8.30;3.03;;;20.10;99.90;;;;;;5013477;28;20041;-88
2022/09/06 00:04:06;;;;;;;5.45;2.42;;;20.10;99.90;;;;;;4997247;28;20571;-87
2022/09/06 00:06:31;;;;;;;5.82;2.70;;;20.00;99.90;;;;;;5013666;28;20041;-88
2022/09/06 00:08:57;;;;;;;4.80;3.58;;;20.00;99.90;;;;;;4996381;28;20049;-88
2022/09/06 00:11:23;;;;;;;7.53;2.72;;;20.00;99.90;;;;;;5013604;28;20049;-87
2022/09/06 00:13:48;;;;;;;6.00;2.85;;;19.90;99.90;;;;;;5029197;28;20088;-88
2022/09/06 00:16:23;;;;;;;5.25;2.53;;;19.90;99.90;;;;;;5029920;28;20048;-88
2022/09/06 00:18:53;;;;;;;4.00;3.05;;;19.90;99.90;;;;;;5013277;28;20090;-88
2022/09/06 00:21:24;;;;;;;9.25;2.78;;;19.90;99.90;;;;;;5029484;28;20128;-88
2022/09/06 00:23:50;;;;;;;4.88;2.53;;;19.80;99.90;;;;;;5029856;28;20542;-88
2022/09/06 00:26:17;;;;;;;5.95;2.58;;;19.80;99.90;;;;;;4995942;28;20082;-88
2022/09/06 00:28:42;;;;;;;14.52;2.70;;;19.80;99.90;;;;;;4997175;28;20508;-88
2022/09/06 00:31:17;;;;;;;4.63;2.70;;;19.70;99.90;;;;;;5012534;28;20045;-88
2022/09/06 00:33:43;;;;;;;6.25;2.58;;;19.70;99.90;;;;;;5029464;28;20158;-88
2022/09/06 00:36:11;;;;;;;7.88;2.90;;;19.70;99.90;;;;;;5012983;28;20139;-87
2022/09/06 00:38:37;;;;;;;5.32;2.85;;;18.50;99.90;;;;;;5045443;28;20041;-87
2022/09/06 00:41:04;;;;;;;10.13;3.08;;;19.60;99.90;;;;;;5013211;28;20084;-88
2022/09/06 00:43:30;;;;;;;2.75;2.53;;;19.50;99.90;;;;;;5028349;28;20041;-89
2022/09/06 00:45:56;;;;;;;4.18;3.10;;;19.50;99.90;;;;;;5029505;28;20523;-88
2022/09/06 00:48:22;;;;;;;6.82;2.97;;;19.50;99.90;;;;;;5028548;28;20091;-87
2022/09/06 00:50:52;;;;;;;8.68;2.85;;;19.50;99.90;;;;;;5012592;28;20033;-88
2022/09/06 00:53:19;;;;;;;8.88;3.10;;;19.40;99.90;;;;;;5029397;28;20036;-88
2022/09/06 00:55:45;;;;;;;4.57;2.70;;;19.40;99.90;;;;;;5029057;28;20136;-87
2022/09/06 00:58:12;;;;;;;3.85;2.63;;;19.40;99.90;;;;;;4996693;28;20072;-87
2022/09/06 01:00:37;;;;;;;4.22;3.25;;;19.40;99.90;;;;;;5011742;28;20037;-89
2022/09/06 01:03:06;;;;;;;4.32;2.72;;;19.40;99.90;;;;;;4996791;28;20052;-88
2022/09/06 01:05:40;;;;;;;7.13;3.25;;;19.30;99.90;;;;;;5028839;28;20048;-88
2022/09/06 01:08:35;;;;;;;3.38;2.50;;;19.30;99.90;;;;;;5012230;28;20539;-88
2022/09/06 01:11:24;;;;;;;4.88;2.70;;;19.30;99.90;;;;;;5027050;28;20057;-88
2022/09/06 01:13:52;;;;;;;3.05;2.75;;;19.30;99.90;;;;;;4981458;28;20052;-88
2022/09/06 01:16:37;;;;;;;2.85;2.55;;;19.30;99.90;;;;;;5028661;28;20091;-88
2022/09/06 01:19:41;;;;;;;3.80;2.92;;;19.70;99.90;;;;;;5028790;28;20055;-88
2022/09/06 01:22:48;;;;;;;5.97;2.80;;;19.20;99.90;;;;;;5011704;28;20064;-86
2022/09/06 01:25:33;;;;;;;9.02;2.45;;;19.20;99.90;;;;;;4989553;28;20143;-88
2022/09/06 01:28:23;;;;;;;9.20;3.15;;;19.20;99.90;;;;;;5029046;28;20396;-88
2022/09/06 01:31:14;;;;;;;4.35;2.50;;;19.20;99.90;;;;;;5027992;28;20504;-87
2022/09/06 01:34:02;;;;;;;8.73;3.22;;;19.10;99.90;;;;;;5028100;28;20048;-88
2022/09/06 01:36:35;;;;;;;8.60;2.85;;;19.10;99.90;;;;;;5028457;28;20110;-88
2022/09/06 01:39:02;;;;;;;11.40;3.10;;;19.10;99.90;;;;;;5027276;28;20045;-88
2022/09/06 01:41:28;;;;;;;4.93;2.85;;;19.10;99.90;;;;;;5012207;28;20045;-88
2022/09/06 01:43:55;;;;;;;4.00;3.15;;;19.00;99.90;;;;;;4995377;28;20040;-88
2022/09/06 01:46:38;;;;;;;4.47;3.33;;;19.00;99.90;;;;;;5012090;28;20052;-88
2022/09/06 01:49:15;;;;;;;3.50;2.72;;;19.00;99.90;;;;;;5027449;28;20041;-88
2022/09/06 01:51:56;;;;;;;5.13;3.03;;;19.00;99.90;;;;;;5027356;28;20136;-88
2022/09/06 01:54:46;;;;;;;8.43;2.90;;;18.90;99.90;;;;;;5028509;28;20056;-88
2022/09/06 01:57:54;;;;;;;5.65;2.72;;;18.90;99.90;;;;;;5028456;28;20064;-88
2022/09/06 02:00:24;;;;;;;5.95;3.10;;;19.00;99.90;;;;;;4983487;28;20049;-87
2022/09/06 02:03:28;;;;;;;6.28;2.95;;;18.90;99.90;;;;;;4996197;28;20041;-88
2022/09/06 02:06:03;;;;;;;5.75;3.15;;;18.90;99.90;;;;;;5001459;28;20432;-87
2022/09/06 02:08:35;;;;;;;7.55;2.80;;;18.90;99.90;;;;;;5027579;28;20048;-87
2022/09/06 02:11:04;;;;;;;7.68;3.25;;;18.90;99.90;;;;;;5028715;28;20401;-88
2022/09/06 02:13:37;;;;;;;6.25;3.20;;;18.90;99.90;;;;;;5027568;28;20045;-87
2022/09/06 02:16:04;;;;;;;;;;;19.00;99.90;;;;;;5028526;28;20041;-88
2022/09/06 02:18:43;;;;;;;3.38;3.10;;;18.80;99.90;;;;;;5027957;28;19927;-88
2022/09/06 02:21:13;;;;;;;8.00;2.90;;;18.80;99.90;;;;;;5027948;28;20073;-87
2022/09/06 02:23:41;;;;;;;3.50;2.92;;;18.80;99.90;;;;;;5028090;28;20037;-88
2022/09/06 02:26:12;;;;;;;10.27;3.13;;;18.80;99.90;;;;;;5010481;28;20094;-88
2022/09/06 02:28:38;;;;;;;3.83;3.00;;;18.80;99.90;;;;;;5028351;28;20037;-88
2022/09/06 02:31:26;;;;;;;5.85;3.20;;;18.80;99.90;;;;;;4994765;28;20519;-87
2022/09/06 02:33:52;;;;;;;5.93;3.10;;;18.80;99.90;;;;;;5011019;28;20045;-88
2022/09/06 02:36:18;;;;;;;7.53;3.63;;;18.80;99.90;;;;;;4995412;28;20037;-88
2022/09/06 02:38:44;;;;;;;3.97;3.15;;;18.80;99.90;;;;;;5026936;28;20059;-88
2022/09/06 02:41:17;;;;;;;3.20;2.90;;;18.80;99.90;;;;;;5027693;28;20041;-88
2022/09/06 02:43:43;;;;;;;6.72;2.83;;;18.80;99.90;;;;;;5011531;28;20037;-88
2022/09/06 02:46:09;;;;;;;7.85;3.60;;;18.80;99.90;;;;;;5010857;28;20041;-88
2022/09/06 02:48:35;;;;;;;3.25;2.92;;;18.70;99.90;;;;;;5011633;28;20135;-88
2022/09/06 02:51:04;;;;;;;6.75;3.33;;;18.70;99.90;;;;;;5010665;28;20076;-88
2022/09/06 02:53:30;;;;;;;7.53;3.65;;;18.70;99.90;;;;;;5011502;28;20041;-88
2022/09/06 02:55:56;;;;;;;4.03;3.63;;;18.70;99.90;;;;;;5010549;28;20045;-88
2022/09/06 02:58:23;;;;;;;3.30;2.90;;;18.70;99.90;;;;;;5028225;28;20048;-88
2022/09/06 03:00:52;;;;;;;7.25;3.22;;;18.70;99.90;;;;;;5027070;28;20041;-88
2022/09/06 03:03:20;;;;;;;6.88;3.30;;;18.70;99.90;;;;;;5031022;28;20056;-88
2022/09/06 03:05:50;;;;;;;3.85;3.40;;;18.60;99.90;;;;;;5030990;28;20045;-88
2022/09/06 03:08:17;;;;;;;5.15;3.70;;;18.60;99.90;;;;;;5014524;28;20762;-88
2022/09/06 03:10:50;;;;;;;3.55;3.25;;;18.60;99.90;;;;;;5031210;28;20659;-88
2022/09/06 03:13:16;;;;;;;5.50;3.78;;;18.60;99.90;;;;;;5013499;28;20542;-88
2022/09/06 03:15:42;;;;;;;3.90;3.40;;;18.50;99.90;;;;;;5014686;28;20063;-88
2022/09/06 03:18:07;;;;;;;5.85;3.67;;;18.50;99.90;;;;;;5014243;28;20041;-87
2022/09/06 03:20:33;;;;;;;5.70;4.03;;;18.50;99.90;;;;;;4981690;28;20040;-88
2022/09/06 03:22:59;;;;;;;3.88;3.53;;;18.40;99.90;;;;;;5030444;28;20045;-88
2022/09/06 03:25:24;;;;;;;4.97;3.63;;;18.40;99.90;;;;;;5014047;28;20127;-87
2022/09/06 03:27:50;;;;;;;5.80;3.35;;;18.40;99.90;;;;;;5014618;28;20041;-88
2022/09/06 03:30:17;;;;;;;4.95;3.25;;;18.40;99.90;;;;;;5029970;28;20036;-88
2022/09/06 03:32:42;;;;;;;10.05;3.85;;;18.40;99.90;;;;;;5030846;28;20040;-88
2022/09/06 03:35:08;;;;;;;7.03;3.63;;;18.40;99.90;;;;;;5013550;28;20041;-88
2022/09/06 03:37:34;;;;;;;5.18;3.35;;;18.30;99.90;;;;;;5031857;28;20041;-88
2022/09/06 03:40:01;;;;;;;7.60;3.33;;;18.30;99.90;;;;;;5014062;28;20507;-88
2022/09/06 03:42:26;;;;;;;4.93;3.78;;;18.30;99.90;;;;;;5015482;28;20413;-87
2022/09/06 03:44:52;;;;;;;4.68;3.63;;;18.30;99.90;;;;;;5015987;28;20032;-87
2022/09/06 03:47:19;;;;;;;6.20;4.13;;;18.30;99.90;;;;;;5015522;28;20044;-88
2022/09/06 03:49:45;;;;;;;4.25;3.38;;;18.30;99.90;;;;;;5033710;28;20071;-86
2022/09/06 03:52:11;;;;;;;5.28;4.13;;;18.30;99.90;;;;;;5032692;28;20043;-88
2022/09/06 03:54:37;;;;;;;7.22;4.15;;;18.20;99.90;;;;;;5018715;28;20136;-88
2022/09/06 03:57:03;;;;;;;6.00;4.20;;;18.20;99.90;;;;;;4986315;28;20102;-88
2022/09/06 03:59:28;;;;;;;9.30;4.63;;;18.20;99.90;;;;;;5034907;28;20045;-87
2022/09/06 04:01:54;;;;;;;9.30;4.07;;;18.20;99.90;;;;;;5019850;28;20044;-87
2022/09/06 04:04:20;;;;;;;5.00;3.95;;;18.20;99.90;;;;;;5017334;28;20044;-88
2022/09/06 04:06:51;;;;;;;6.45;4.70;;;18.20;99.90;;;;;;5018980;28;20052;-88
2022/09/06 04:09:17;;;;;;;6.63;4.30;;;18.20;99.90;;;;;;4985905;28;20045;-88
2022/09/06 04:11:42;;;;;;;4.20;3.70;;;18.20;99.90;;;;;;4983908;28;20052;-87
2022/09/06 04:14:08;;;;;;;5.05;3.85;;;18.20;99.90;;;;;;5015391;28;20053;-85
2022/09/06 04:16:34;;;;;;;5.78;4.13;;;18.20;99.90;;;;;;5015984;28;20428;-87
2022/09/06 04:19:01;;;;;;;6.13;4.65;;;18.20;99.90;;;;;;5015792;28;20045;-85
2022/09/06 04:21:27;;;;;;;7.53;4.60;;;18.20;99.90;;;;;;5015980;28;20049;-86
2022/09/06 04:23:52;;;;;;;5.10;4.60;;;18.20;99.90;;;;;;5032225;28;20213;-86
2022/09/06 04:26:18;;;;;;;7.35;4.55;;;18.20;99.90;;;;;;5014759;28;20145;-89
2022/09/06 04:28:44;;;;;;;7.82;4.75;;;18.10;99.90;;;;;;5016559;28;20041;-88
2022/09/06 04:31:10;;;;;;;4.80;4.28;;;18.10;99.90;;;;;;5031710;28;20104;-88
2022/09/06 04:33:37;;;;;;;5.03;4.53;;;18.10;99.90;;;;;;4986539;28;20518;-89
2022/09/06 04:36:06;;;;;;;6.70;4.70;;;18.10;99.90;;;;;;5019650;28;20066;-86
2022/09/06 04:38:37;;;;;;;7.63;4.70;;;18.10;99.90;;;;;;5037295;28;20037;-89
2022/09/06 04:41:05;;;;;;;6.60;4.35;;;18.10;99.90;;;;;;5022891;28;20301;-90
2022/09/06 04:43:30;;;;;;;6.03;4.95;;;18.10;99.90;;;;;;5037339;28;20127;-88
2022/09/06 04:46:05;;;;;;;7.03;5.28;;;17.60;99.90;;;;;;5016728;28;20081;-86
2022/09/06 04:48:31;;;;;;;7.47;5.15;;;18.10;99.90;;;;;;5028620;28;20083;-86
2022/09/06 04:50:57;;;;;;;8.80;5.32;;;18.10;99.90;;;;;;5012205;28;20080;-87
2022/09/06 04:53:22;;;;;;;5.75;5.07;;;18.10;99.90;;;;;;5013134;28;20067;-88
2022/09/06 04:55:48;;;;;;;7.97;5.63;;;18.10;99.90;;;;;;5012335;28;20492;-89
2022/09/06 04:58:14;;;;;;;7.00;4.85;;;18.20;99.90;;;;;;5012856;28;20454;-88
2022/09/06 05:00:43;;;;;;;7.72;5.10;;;18.10;99.90;;;;;;5028626;28;20139;-86
2022/09/06 05:03:09;;;;;;;7.63;5.32;;;18.20;99.90;;;;;;4997222;28;20045;-92
2022/09/06 05:05:34;;;;;;;5.43;4.90;;;18.10;99.90;;;;;;4996433;28;20044;-88
2022/09/06 05:08:00;;;;;;;6.53;5.43;;;18.20;99.90;;;;;;5017191;28;20044;-91
2022/09/06 05:10:26;;;;;;;5.82;5.22;;;18.20;99.90;;;;;;5032230;28;20049;-88
2022/09/06 05:12:53;;;;;;;6.90;5.55;;;18.10;99.90;;;;;;5029953;28;20076;-86
2022/09/06 05:15:20;;;;;;;8.75;5.78;;;18.60;99.90;;;;;;5011867;28;20140;-85
2022/09/06 05:17:46;;;;;;;5.75;5.05;;;18.10;99.90;;;;;;5011609;28;20094;-85
2022/09/06 05:20:13;;;;;;;8.10;5.78;;;18.10;99.90;;;;;;5012819;28;20056;-84
2022/09/06 05:22:39;;;;;;;9.27;6.25;;;18.10;99.90;;;;;;5028601;28;20040;-84
2022/09/06 05:25:06;;;;;;;10.82;6.35;;;18.00;99.90;;;;;;5028371;28;20395;-85
2022/09/06 05:27:32;;;;;;;6.57;5.40;;;18.10;99.90;;;;;;5012726;28;20393;-84
2022/09/06 05:29:57;;;;;;;9.65;6.40;;;18.00;99.90;;;;;;5028082;28;20083;-85
2022/09/06 05:32:23;;;;;;;7.03;5.57;;;18.60;99.90;;;;;;5012424;28;20049;-84
2022/09/06 05:34:49;;;;;;;6.85;6.15;;;18.70;99.90;;;;;;5011242;28;20048;-85
2022/09/06 05:37:14;;;;;;;6.32;5.72;;;18.10;99.90;;;;;;5012021;28;20506;-84
2022/09/06 05:39:40;;;;;;;6.55;5.72;;;18.10;99.90;;;;;;5011854;28;20087;-88
2022/09/06 05:42:06;;;;;;;7.68;6.35;;;18.00;99.90;;;;;;5012286;28;20366;-85
2022/09/06 05:44:36;;;;;;;9.70;6.22;;;18.10;99.90;;;;;;5012059;28;20075;-82
2022/09/06 05:47:02;;;;;;;8.18;6.75;;;18.10;99.90;;;;;;5028068;28;20502;-82
2022/09/06 05:49:29;;;;;;;6.85;6.20;;;18.10;99.90;;;;;;5012362;28;20047;-83
2022/09/06 05:51:55;;;;;;;9.40;6.90;;;18.10;99.90;;;;;;5028242;28;20076;-82
2022/09/06 05:54:21;;;;;;;7.15;6.45;;;18.10;99.90;;;;;;5028265;28;20041;-82
2022/09/06 05:56:47;;;;;;;9.98;7.20;;;18.10;99.90;;;;;;5027642;28;20138;-82
2022/09/06 05:59:13;;;;;;;8.25;6.95;;;18.10;99.90;;;;;;5011402;28;20081;-82
2022/09/06 06:01:50;;;;;;;10.85;6.75;;;18.20;99.90;;;;;;5011680;28;20068;-82
2022/09/06 06:04:17;;;;;;;10.50;7.38;;;18.20;99.90;;;;;;5027970;28;20770;-83
2022/09/06 06:06:44;;;;;;;8.00;7.20;;;18.20;99.90;;;;;;5028265;28;20049;-82
2022/09/06 06:09:10;;;;;;;9.73;6.80;;;18.30;99.90;;;;;;5027392;28;20131;-82
2022/09/06 06:11:36;;;;;;;8.18;6.57;;;18.30;99.90;;;;;;5011588;28;20445;-82
2022/09/06 06:14:03;;;;;;;8.18;7.25;;;18.40;99.90;;;;;;5011037;28;20457;-83
2022/09/06 06:16:28;;;;;;;9.57;6.82;;;18.40;99.90;;;;;;5011370;28;20131;-83
2022/09/06 06:18:55;;;;;;;9.80;6.72;;;18.50;99.90;;;;;;5011339;28;20129;-82
2022/09/06 06:21:24;;;;;;;9.52;7.72;;;18.70;99.90;;;;;;5010861;28;20042;-82
2022/09/06 06:23:55;;;;;;;8.70;6.57;;;18.60;99.90;;;;;;5028401;28;20526;-82
2022/09/06 06:26:22;;;;;;;10.18;7.60;;;18.60;99.90;;;;;;5027802;28;20053;-83
2022/09/06 06:28:48;;;;;;;10.95;7.15;;;18.70;99.90;;;;;;5028331;28;20483;-83
2022/09/06 06:31:14;;;;;;;7.90;7.10;;;18.70;99.90;;;;;;4994531;28;20132;-83
2022/09/06 06:33:40;;;;;;;7.88;7.10;;;18.70;99.90;;;;;;5011682;28;20645;-83
2022/09/06 06:36:14;;;;;;;7.97;6.45;;;18.70;99.90;;;;;;5030158;28;20045;-82
2022/09/06 06:38:43;;;;;;;8.23;7.32;;;18.80;99.90;;;;;;5014362;28;20087;-83
2022/09/06 06:41:10;;;;;;;10.77;7.60;;;18.80;99.90;;;;;;5031676;28;20040;-82
2022/09/06 06:43:36;;;;;;;9.05;8.10;;;18.80;99.90;;;;;;5031311;28;20103;-83
2022/09/06 06:46:14;;;;;;;8.43;6.90;;;18.80;99.90;;;;;;5031784;28;20092;-82
2022/09/06 06:48:42;;;;;;;12.27;7.47;;;18.80;99.90;;;;;;5031301;28;20110;-82
2022/09/06 06:51:12;;;;;;;10.95;7.25;;;18.80;99.90;;;;;;5014423;28;20068;-82
2022/09/06 06:53:38;;;;;;;8.40;7.40;;;18.80;99.90;;;;;;5031464;28;20051;-82
2022/09/06 06:56:23;;;;;;;14.05;7.40;;;18.90;99.90;;;;;;5014866;28;20131;-82
2022/09/06 06:58:51;;;;;;;9.52;7.90;;;18.90;99.90;;;;;;5015160;28;20044;-82
2022/09/06 07:01:21;;;;;;;10.23;7.85;;;18.80;99.90;;;;;;5014435;28;20033;-82
2022/09/06 07:03:47;;;;;;;9.80;7.32;;;18.90;99.90;;;;;;5030553;28;20041;-83
2022/09/06 07:06:14;;;;;;;12.77;8.52;;;18.90;99.90;;;;;;4998493;28;20040;-82
2022/09/06 07:08:40;;;;;;;10.68;7.75;;;18.90;99.90;;;;;;5014433;28;20381;-82
2022/09/06 07:11:08;;;;;;;9.40;7.43;;;19.00;99.90;;;;;;5031127;28;20051;-82
2022/09/06 07:13:34;;;;;;;10.80;7.85;;;19.00;99.90;;;;;;5030561;28;20044;-82
2022/09/06 07:16:28;;;;;;;10.93;7.55;;;19.10;99.90;;;;;;5030980;28;20060;-82
2022/09/06 07:18:54;;;;;;;11.50;8.15;;;19.20;99.90;;;;;;5012799;28;20438;-82
2022/09/06 07:21:25;;;;;;;9.48;7.88;;;19.30;99.90;;;;;;5030818;28;20132;-82
2022/09/06 07:23:53;;;;;;;10.52;8.50;;;19.30;99.90;;;;;;5031431;28;20447;-82
2022/09/06 07:26:27;;;;;;;14.55;7.65;;;19.40;99.90;;;;;;5030116;28;20041;-82
2022/09/06 07:28:58;;;;;;;9.40;8.18;;;19.40;99.90;;;;;;5030601;28;20045;-82
2022/09/06 07:31:24;;;;;;;9.57;8.57;;;19.50;99.90;;;;;;5030613;28;20496;-82
2022/09/06 07:33:49;;;;;;;11.68;8.55;;;19.50;99.90;;;;;;5015407;28;20068;-82
2022/09/06 07:36:15;;;;;;;12.95;7.90;;;19.50;99.90;;;;;;5015435;28;20052;-82
2022/09/06 07:38:41;;;;;;;8.98;7.95;;;19.60;99.90;;;;;;5032461;28;20048;-82
2022/09/06 07:41:09;;;;;;;9.55;8.60;;;19.50;99.90;;;;;;5032483;28;20041;-82
2022/09/06 07:43:36;;;;;;;9.93;8.90;;;19.50;99.90;;;;;;5031831;28;20053;-81
2022/09/06 07:46:20;;;;;;;12.43;9.73;;;19.50;99.90;;;;;;5032615;28;20044;-81
2022/09/06 07:48:48;;;;;;;9.07;8.15;;;19.50;99.90;;;;;;5015645;28;20435;-82
2022/09/06 07:51:21;;;;;;;10.32;9.23;;;19.50;99.90;;;;;;5015850;28;20144;-82
2022/09/06 07:53:49;;;;;;;;;;;19.90;99.90;;;;;;5033428;28;20462;-81
2022/09/06 07:56:15;;;;;;;10.20;8.60;;;19.80;99.90;;;;;;5030105;28;20398;-82
2022/09/06 07:58:41;;;;;;;9.35;7.75;;;19.90;99.90;;;;;;5030990;28;20068;-81
2022/09/06 08:01:28;;;;;;;14.15;8.70;;;19.90;99.90;;;;;;5030753;28;20048;-81
2022/09/06 08:03:58;;;;;;;11.27;9.75;;;19.90;99.90;;;;;;5048326;28;20045;-80
2022/09/06 08:06:26;;;;;;;9.60;8.70;;;20.00;99.90;;;;;;5013886;28;20124;-81
2022/09/06 08:08:52;;;;;;;9.43;8.20;;;20.10;99.90;;;;;;5029320;28;20485;-81
2022/09/06 08:11:19;;;;;;;11.15;8.48;;;20.30;99.90;;;;;;5030483;28;20102;-80
2022/09/06 08:13:48;;;;;;;10.75;8.50;;;20.50;99.90;;;;;;5047193;28;20510;-81
2022/09/06 08:16:15;;;;;;;15.30;9.38;;;20.60;99.90;;;;;;5013672;28;20053;-81
2022/09/06 08:18:42;;;;;;;11.85;8.73;;;20.80;99.90;;;;;;5029829;28;20087;-80
2022/09/06 08:21:12;;;;;;;14.52;8.68;;;20.90;99.90;;;;;;5012671;28;20052;-80
2022/09/06 08:23:47;;;;;;;12.65;9.10;;;21.10;99.90;;;;;;5013536;28;20052;-81
2022/09/06 08:26:12;;;;;;;8.82;7.72;;;21.30;99.90;;;;;;5013782;28;20554;-82
2022/09/06 08:28:38;;;;;;;10.13;8.05;;;21.40;99.90;;;;;;5015066;28;20037;-80
2022/09/06 08:31:09;;;;;;;9.32;8.35;;;21.50;99.90;;;;;;5048743;28;20049;-81
2022/09/06 08:33:35;;;;;;;9.63;8.60;;;21.60;99.90;;;;;;5030841;28;20040;-81
2022/09/06 08:36:01;;;;;;;10.40;8.15;;;21.70;99.90;;;;;;5031159;28;20048;-81
2022/09/06 08:38:27;;;;;;;8.60;7.65;;;21.80;99.90;;;;;;5047413;28;20056;-81
2022/09/06 08:41:03;;;;;;;10.95;7.65;;;21.90;99.90;;;;;;5048340;28;20110;-81
2022/09/06 08:43:29;;;;;;;9.25;7.80;;;22.00;99.90;;;;;;5029663;28;20124;-81
2022/09/06 08:45:56;;;;;;;9.00;7.07;;;22.10;99.90;;;;;;5047949;28;20191;-81
2022/09/06 08:48:29;;;;;;;8.25;7.38;;;22.30;99.90;;;;;;5047655;28;20081;-81
2022/09/06 08:51:10;;;;;;;15.10;7.68;;;22.30;99.90;;;;;;5029273;28;20056;-80
2022/09/06 08:53:42;;;;;;;12.95;8.68;;;22.40;99.90;;;;;;5047375;28;20055;-81
2022/09/06 08:56:27;;;;;;;11.07;7.38;;;22.50;99.90;;;;;;5029375;28;20507;-81
2022/09/06 08:59:11;;;;;;;8.48;7.60;;;22.60;99.90;;;;;;5028948;28;20045;-82
2022/09/06 09:01:59;;;;;;;9.05;8.25;;;22.60;99.90;;;;;;5029094;28;20052;-81
2022/09/06 09:04:28;;;;;;;16.63;7.88;;;22.80;99.90;;;;;;5028021;28;20045;-82
2022/09/06 09:07:24;;;;;;;10.98;8.30;;;22.90;99.90;;;;;;5029022;28;20045;-82
2022/09/06 09:09:51;;;;;;;30.23;8.75;;;23.00;99.90;;;;;;5004970;28;20095;-82
2022/09/06 09:12:21;;;;;;;10.85;7.32;;;23.10;99.90;;;;;;5029780;28;20495;-81
2022/09/06 09:14:55;;;;;;;11.80;7.70;;;23.20;99.90;;;;;;5033820;28;20072;-82
2022/09/06 09:17:28;;;;;;;9.10;6.40;;;23.20;99.90;;;;;;5030086;28;20041;-82
2022/09/06 09:19:54;;;;;;;8.20;7.18;;;23.40;99.90;;;;;;5030498;28;20048;-81
2022/09/06 09:22:21;;;;;;;8.00;7.18;;;23.50;99.90;;;;;;5013261;28;20435;-81
2022/09/06 09:24:50;;;;;;;7.53;6.68;;;23.60;99.90;;;;;;5030200;28;20570;-81
2022/09/06 09:27:19;;;;;;;13.00;7.68;;;23.70;99.90;;;;;;5030705;28;20048;-81
2022/09/06 09:29:58;;;;;;;18.65;7.88;;;23.80;99.90;;;;;;5029772;28;20106;-81
2022/09/06 09:32:36;;;;;;;7.93;6.72;;;24.00;99.90;;;;;;5048545;28;20500;-81
2022/09/06 09:35:31;;;;;;;9.05;7.50;;;24.20;99.90;;;;;;5030316;28;20077;-82
2022/09/06 09:38:01;;;;;;;7.82;7.03;;;24.40;99.90;;;;;;5046669;28;20052;-82
2022/09/06 09:40:38;;;;;;;8.80;7.38;;;24.60;99.90;;;;;;5031531;28;20041;-81
2022/09/06 09:43:25;;;;;;;11.00;7.43;;;24.80;99.90;;;;;;5048700;28;20059;-82
2022/09/06 09:46:23;;;;;;;8.50;7.43;;;25.00;99.90;;;;;;5031343;28;20126;-82
2022/09/06 09:49:06;;;;;;;9.90;8.18;;;25.20;99.90;;;;;;4988567;28;20064;-81
2022/09/06 09:51:35;;;;;;;8.48;7.57;;;25.30;99.90;;;;;;5030753;28;20037;-78
2022/09/06 09:54:03;;;;;;;7.97;7.03;;;25.30;99.90;;;;;;5049339;28;20114;-84
2022/09/06 09:56:49;;;;;;;9.13;7.72;;;25.20;99.90;;;;;;5032476;28;20088;-83
2022/09/06 09:59:22;;;;;;;15.02;7.45;;;25.10;99.90;;;;;;5032001;28;20060;-81
2022/09/06 10:01:50;;;;;;;16.80;8.10;;;25.00;99.90;;;;;;5032814;28;20037;-83
2022/09/06 10:04:21;;;;;;;10.05;7.88;;;24.80;99.90;;;;;;5033105;28;20045;-79
2022/09/06 10:06:46;;;;;;;9.95;7.55;;;24.60;99.90;;;;;;5033486;28;20045;-85
2022/09/06 10:09:30;;;;;;;15.65;7.97;;;24.60;99.90;;;;;;5000306;28;20064;-82
2022/09/06 10:11:58;;;;;;;8.18;7.35;;;25.40;99.90;;;;;;5035661;28;20151;-83
2022/09/06 10:14:28;;;;;;;11.52;8.32;;;24.70;99.90;;;;;;5034319;28;20053;-84
2022/09/06 10:16:55;;;;;;;9.60;7.38;;;24.80;99.90;;;;;;5033311;28;20061;-84
2022/09/06 10:19:41;;;;;;;8.25;7.45;;;24.80;99.90;;;;;;5034041;28;20072;-83
2022/09/06 10:22:30;;;;;;;9.82;6.93;;;24.90;99.90;;;;;;5015131;28;20053;-82
2022/09/06 10:25:02;;;;;;;17.90;7.38;;;24.90;99.90;;;;;;5032133;28;20044;-82
2022/09/06 10:27:29;;;;;;;11.35;7.40;;;25.00;99.90;;;;;;5032365;28;20044;-83
2022/09/06 10:30:06;;;;;;;9.48;7.40;;;25.00;99.90;;;;;;5031727;28;20053;-82
2022/09/06 10:32:50;;;;;;;9.38;7.60;;;25.00;99.90;;;;;;5032916;28;20081;-83
2022/09/06 10:35:23;;;;;;;12.20;6.82;;;25.00;99.90;;;;;;5033707;28;20079;-84
2022/09/06 10:38:07;;;;;;;8.38;6.85;;;25.00;99.90;;;;;;5031668;28;20501;-83
2022/09/06 10:40:41;;;;;;;11.60;7.40;;;25.00;99.90;;;;;;5032215;28;20077;-83
2022/09/06 10:43:16;;;;;;;9.43;6.20;;;25.00;99.90;;;;;;5031212;28;20072;-84
2022/09/06 10:45:50;;;;;;;9.68;7.05;;;25.10;99.90;;;;;;5031642;28;20133;-83
2022/09/06 10:48:29;;;;;;;10.13;7.40;;;25.10;99.90;;;;;;5032732;28;20118;-82
2022/09/06 10:51:03;;;;;;;14.55;7.82;;;25.20;99.90;;;;;;5032101;28;20408;-83
2022/09/06 10:53:49;;;;;;;10.32;7.65;;;25.20;99.90;;;;;;5033727;28;20045;-81
2022/09/06 10:56:27;;;;;;;8.00;6.57;;;25.10;99.90;;;;;;5032052;28;20053;-83
2022/09/06 10:58:58;;;;;;;8.85;7.03;;;25.20;99.90;;;;;;5015255;28;20049;-83
2022/09/06 11:01:33;;;;;;;11.23;7.35;;;25.40;99.90;;;;;;5033149;28;20424;-83
2022/09/06 11:04:00;;;;;;;9.10;7.47;;;25.60;99.90;;;;;;5030975;28;20566;-83
2022/09/06 11:06:34;;;;;;;9.90;7.28;;;25.70;99.90;;;;;;5031978;28;20045;-81
2022/09/06 11:09:22;;;;;;;7.50;6.53;;;25.80;99.90;;;;;;5032070;28;20064;-82
2022/09/06 11:12:07;;;;;;;12.40;6.40;;;25.90;99.30;;;;;;5016101;28;20041;-83
2022/09/06 11:14:34;;;;;;;11.82;7.40;;;26.00;99.70;;;;;;5041106;28;20120;-83
2022/09/06 11:17:09;;;;;;;13.57;7.00;;;26.00;99.40;;;;;;5035588;28;20088;-83
2022/09/06 11:20:14;;;;;;;12.38;8.13;;;26.10;98.80;;;;;;5019254;28;20123;-82
2022/09/06 11:22:59;;;;;;;8.13;7.32;;;26.10;98.30;;;;;;5048285;28;20586;-82
2022/09/06 11:25:40;;;;;;;10.82;6.38;;;26.10;98.00;;;;;;5019542;28;20045;-82
2022/09/06 11:28:10;;;;;;;9.95;6.22;;;26.10;98.00;;;;;;5019490;28;20048;-83
2022/09/06 11:30:36;;;;;;;6.57;5.93;;;26.20;98.00;;;;;;5019874;28;20059;-83
2022/09/06 11:33:22;;;;;;;10.80;6.93;;;26.40;98.30;;;;;;5020675;28;20136;-83
2022/09/06 11:35:47;;;;;;;12.30;6.10;;;26.50;97.40;;;;;;5037055;28;20041;-82
2022/09/06 11:38:13;;;;;;;10.43;6.30;;;26.60;97.30;;;;;;5019449;28;20041;-83
2022/09/06 11:40:45;;;;;;;9.10;6.78;;;26.70;97.00;;;;;;5019426;28;20048;-83
2022/09/06 11:43:16;;;;;;;;;;;26.70;96.60;;;;;;5036667;28;20045;-83
2022/09/06 11:45:44;;;;;;;8.00;6.07;;;26.80;96.00;;;;;;5035673;28;19920;-82
2022/09/06 11:48:43;;;;;;;7.53;5.10;;;26.10;95.90;;;;;;5019592;28;20037;-81
2022/09/06 11:51:12;;;;;;;7.55;4.57;;;27.00;94.70;;;;;;5034306;28;20045;-83
2022/09/06 11:53:49;;;;;;;6.35;4.90;;;27.00;94.90;;;;;;5019249;28;20041;-80
2022/09/06 11:56:59;;;;;;;8.90;4.75;;;26.90;93.30;;;;;;5028277;28;20055;-83
2022/09/06 11:59:46;;;;;;;10.05;4.88;;;27.00;93.40;;;;;;5021008;28;20117;-81
2022/09/06 12:02:31;;;;;;;7.95;4.72;;;26.90;93.20;;;;;;5023788;28;20097;-82
2022/09/06 12:05:02;;;;;;;5.82;4.50;;;26.80;92.50;;;;;;5051521;28;20067;-82
2022/09/06 12:07:30;;;;;;;4.95;4.15;;;26.80;93.50;;;;;;5032802;28;20079;-81
2022/09/06 12:09:59;;;;;;;12.15;5.35;;;26.60;93.30;;;;;;5051046;28;20080;-82
2022/09/06 12:12:51;;;;;;;5.60;4.40;;;26.60;93.20;;;;;;5032190;28;20040;-82
2022/09/06 12:15:43;;;;;;;8.25;4.32;;;26.70;92.30;;;;;;5010831;28;20053;-82
2022/09/06 12:18:41;;;;;;;5.55;4.43;;;26.90;92.60;;;;;;5021220;28;20132;-83
2022/09/06 12:21:08;;;;;;;9.57;4.40;;;27.10;91.90;;;;;;5046809;28;20454;-82
2022/09/06 12:23:34;;;;;;;4.82;3.60;;;27.20;91.70;;;;;;5029582;28;20087;-83
2022/09/06 12:26:04;;;;;;;8.27;4.00;;;27.30;91.50;;;;;;5046027;28;20076;-83
2022/09/06 12:28:48;;;;;;;6.72;4.22;;;27.40;90.80;;;;;;5029589;28;20060;-83
2022/09/06 12:31:39;;;;;;;6.22;3.92;;;27.60;89.80;;;;;;5026374;28;20049;-83
2022/09/06 12:34:16;;;;;;;5.68;4.28;;;27.70;87.90;;;;;;5011696;28;20095;-83
2022/09/06 12:36:50;;;;;;;4.80;3.58;;;27.70;89.90;;;;;;5047521;28;20120;-82
2022/09/06 12:39:16;;;;;;;5.10;3.58;;;27.80;89.30;;;;;;5045931;28;20072;-83
2022/09/06 12:41:49;;;;;;;5.25;4.07;;;27.90;90.20;;;;;;5046487;28;20048;-83
2022/09/06 12:44:16;;;;;;;9.63;5.32;;;27.80;87.30;;;;;;5030086;28;20440;-83
2022/09/06 12:46:49;;;;;;;6.13;4.18;;;27.70;87.60;;;;;;5028532;28;20132;-83
2022/09/06 12:49:18;;;;;;;8.77;4.60;;;27.70;86.90;;;;;;5028985;28;20045;-83
2022/09/06 12:51:44;;;;;;;12.82;5.68;;;27.70;87.20;;;;;;5028689;28;20045;-83
2022/09/06 12:54:22;;;;;;;9.07;4.28;;;27.80;86.70;;;;;;5029403;28;20045;-82
2022/09/06 12:56:49;;;;;;;8.75;4.22;;;27.90;86.50;;;;;;5029183;28;20045;-83
2022/09/06 12:59:18;;;;;;;6.45;4.13;;;28.00;86.50;;;;;;5028206;28;20563;-83
2022/09/06 13:01:50;;;;;;;5.57;4.53;;;28.10;86.40;;;;;;5028889;28;20074;-83
2022/09/06 13:04:38;;;;;;;8.77;4.57;;;28.30;85.30;;;;;;5028489;28;20056;-83
2022/09/06 13:07:08;;;;;;;6.93;4.13;;;28.30;82.00;;;;;;5028574;28;20598;-82
2022/09/06 13:09:35;;;;;;;6.45;4.10;;;28.40;85.10;;;;;;5029101;28;20107;-83